sensor_id;sensor_type;location;lat;lon;timestamp;pressure;altitude;pressure_sealevel;temperature;humidity
77351;BME280;66420;50.246;14.320;2023-06-22T00:00:07;99828.19;;;20.59;80.91
77351;BME280;66420;50.246;14.320;2023-06-22T00:02:56;99841.22;;;20.55;81.78
77351;BME280;66420;50.246;14.320;2023-06-22T00:05:41;99840.81;;;20.53;81.71
77351;BME280;66420;50.246;14.320;2023-06-22T00:08:25;99840.34;;;20.51;81.88
77351;BME280;66420;50.246;14.320;2023-06-22T00:11:10;99840.88;;;20.37;82.67
77351;BME280;66420;50.246;14.320;2023-06-22T00:13:55;99843.31;;;20.39;82.73
77351;BME280;66420;50.246;14.320;2023-06-22T00:16:40;99850.44;;;20.40;83.37
77351;BME280;66420;50.246;14.320;2023-06-22T00:19:27;99852.75;;;20.34;83.25
77351;BME280;66420;50.246;14.320;2023-06-22T00:22:12;99849.09;;;20.30;83.37
77351;BME280;66420;50.246;14.320;2023-06-22T00:24:56;99852.66;;;20.30;82.72
77351;BME280;66420;50.246;14.320;2023-06-22T00:27:41;99854.53;;;20.26;83.84
77351;BME280;66420;50.246;14.320;2023-06-22T00:30:26;99858.84;;;20.24;82.63
77351;BME280;66420;50.246;14.320;2023-06-22T00:33:11;99854.97;;;20.28;83.87
77351;BME280;66420;50.246;14.320;2023-06-22T00:35:56;99849.34;;;20.25;83.40
77351;BME280;66420;50.246;14.320;2023-06-22T00:38:40;99850.44;;;20.20;82.71
77351;BME280;66420;50.246;14.320;2023-06-22T00:41:25;99852.50;;;20.23;82.89
77351;BME280;66420;50.246;14.320;2023-06-22T00:44:13;99848.09;;;20.22;82.89
77351;BME280;66420;50.246;14.320;2023-06-22T00:46:58;99848.84;;;20.19;82.83
77351;BME280;66420;50.246;14.320;2023-06-22T00:49:45;99847.56;;;20.17;83.50
77351;BME280;66420;50.246;14.320;2023-06-22T00:52:31;99854.56;;;20.07;83.31
77351;BME280;66420;50.246;14.320;2023-06-22T00:55:21;99858.91;;;20.08;82.38
77351;BME280;66420;50.246;14.320;2023-06-22T00:58:06;99854.69;;;20.14;83.04
77351;BME280;66420;50.246;14.320;2023-06-22T01:00:54;99850.75;;;20.15;83.13
77351;BME280;66420;50.246;14.320;2023-06-22T01:03:39;99843.44;;;20.07;84.21
77351;BME280;66420;50.246;14.320;2023-06-22T01:06:32;99840.94;;;20.02;82.53
77351;BME280;66420;50.246;14.320;2023-06-22T01:09:27;99833.78;;;20.01;82.98
77351;BME280;66420;50.246;14.320;2023-06-22T01:12:17;99830.47;;;19.96;83.28
77351;BME280;66420;50.246;14.320;2023-06-22T01:15:18;99828.34;;;19.89;83.59
77351;BME280;66420;50.246;14.320;2023-06-22T01:18:06;99827.84;;;19.83;83.54
77351;BME280;66420;50.246;14.320;2023-06-22T01:20:54;99826.16;;;19.79;83.63
77351;BME280;66420;50.246;14.320;2023-06-22T01:26:46;99830.22;;;19.66;84.53
77351;BME280;66420;50.246;14.320;2023-06-22T01:29:34;99828.97;;;19.63;84.72
77351;BME280;66420;50.246;14.320;2023-06-22T01:32:21;99824.84;;;19.57;85.16
77351;BME280;66420;50.246;14.320;2023-06-22T01:35:07;99823.91;;;19.50;84.92
77351;BME280;66420;50.246;14.320;2023-06-22T01:37:52;99823.91;;;19.50;85.39
77351;BME280;66420;50.246;14.320;2023-06-22T01:40:37;99821.94;;;19.50;84.33
77351;BME280;66420;50.246;14.320;2023-06-22T01:43:24;99820.75;;;19.51;85.06
77351;BME280;66420;50.246;14.320;2023-06-22T01:46:10;99833.84;;;19.51;85.07
77351;BME280;66420;50.246;14.320;2023-06-22T01:48:56;99824.63;;;19.46;85.40
77351;BME280;66420;50.246;14.320;2023-06-22T01:51:41;99828.19;;;19.31;86.93
77351;BME280;66420;50.246;14.320;2023-06-22T01:54:26;99819.88;;;19.31;87.01
77351;BME280;66420;50.246;14.320;2023-06-22T01:57:11;99822.56;;;19.28;85.86
77351;BME280;66420;50.246;14.320;2023-06-22T02:00:02;99824.25;;;19.17;86.30
77351;BME280;66420;50.246;14.320;2023-06-22T02:03:30;99838.78;;;19.10;87.45
77351;BME280;66420;50.246;14.320;2023-06-22T02:06:10;99833.50;;;19.05;89.46
77351;BME280;66420;50.246;14.320;2023-06-22T02:09:00;99832.97;;;18.99;89.33
77351;BME280;66420;50.246;14.320;2023-06-22T02:11:46;99828.56;;;18.98;87.97
77351;BME280;66420;50.246;14.320;2023-06-22T02:14:32;99833.13;;;18.91;88.58
77351;BME280;66420;50.246;14.320;2023-06-22T02:17:18;99834.13;;;18.83;89.42
77351;BME280;66420;50.246;14.320;2023-06-22T02:20:03;99839.56;;;18.64;90.84
77351;BME280;66420;50.246;14.320;2023-06-22T02:22:52;99845.28;;;18.55;90.78
77351;BME280;66420;50.246;14.320;2023-06-22T02:25:37;99844.22;;;18.47;91.31
77351;BME280;66420;50.246;14.320;2023-06-22T02:28:22;99852.53;;;18.47;90.77
77351;BME280;66420;50.246;14.320;2023-06-22T02:31:07;99858.31;;;18.42;91.27
77351;BME280;66420;50.246;14.320;2023-06-22T02:33:52;99853.84;;;18.38;91.00
77351;BME280;66420;50.246;14.320;2023-06-22T02:36:37;99842.75;;;18.38;91.54
77351;BME280;66420;50.246;14.320;2023-06-22T02:39:23;99842.22;;;18.32;91.24
77351;BME280;66420;50.246;14.320;2023-06-22T02:42:08;99846.25;;;18.35;91.31
77351;BME280;66420;50.246;14.320;2023-06-22T02:44:54;99846.16;;;18.31;90.75
77351;BME280;66420;50.246;14.320;2023-06-22T02:47:39;99827.31;;;18.37;89.38
77351;BME280;66420;50.246;14.320;2023-06-22T02:50:24;99832.47;;;18.38;89.74
77351;BME280;66420;50.246;14.320;2023-06-22T02:53:09;99830.72;;;18.46;89.58
77351;BME280;66420;50.246;14.320;2023-06-22T02:55:55;99821.06;;;18.40;89.58
77351;BME280;66420;50.246;14.320;2023-06-22T02:58:40;99822.13;;;18.35;90.50
77351;BME280;66420;50.246;14.320;2023-06-22T03:01:25;99826.03;;;18.34;89.78
77351;BME280;66420;50.246;14.320;2023-06-22T03:04:12;99822.13;;;18.35;90.43
77351;BME280;66420;50.246;14.320;2023-06-22T03:06:58;99820.25;;;18.39;89.74
77351;BME280;66420;50.246;14.320;2023-06-22T03:09:45;99824.44;;;18.33;90.10
77351;BME280;66420;50.246;14.320;2023-06-22T03:12:30;99828.63;;;18.27;90.45
77351;BME280;66420;50.246;14.320;2023-06-22T03:15:15;99837.19;;;18.22;90.30
77351;BME280;66420;50.246;14.320;2023-06-22T03:17:59;99837.38;;;18.29;90.22
77351;BME280;66420;50.246;14.320;2023-06-22T03:20:44;99839.47;;;18.32;89.73
77351;BME280;66420;50.246;14.320;2023-06-22T03:23:29;99837.59;;;18.36;89.41
77351;BME280;66420;50.246;14.320;2023-06-22T03:26:16;99841.75;;;18.30;88.84
77351;BME280;66420;50.246;14.320;2023-06-22T03:29:01;99852.84;;;18.30;89.42
77351;BME280;66420;50.246;14.320;2023-06-22T03:31:47;99854.22;;;18.36;89.26
77351;BME280;66420;50.246;14.320;2023-06-22T03:34:31;99855.19;;;18.28;89.42
77351;BME280;66420;50.246;14.320;2023-06-22T03:37:21;99865.22;;;18.33;89.26
77351;BME280;66420;50.246;14.320;2023-06-22T03:40:06;99862.06;;;18.34;89.25
77351;BME280;66420;50.246;14.320;2023-06-22T03:42:50;99861.16;;;18.30;90.49
77351;BME280;66420;50.246;14.320;2023-06-22T03:45:34;99862.78;;;18.31;89.36
77351;BME280;66420;50.246;14.320;2023-06-22T03:48:19;99857.59;;;18.30;89.39
77351;BME280;66420;50.246;14.320;2023-06-22T03:51:04;99858.13;;;18.35;89.06
77351;BME280;66420;50.246;14.320;2023-06-22T03:53:49;99864.25;;;18.41;89.78
77351;BME280;66420;50.246;14.320;2023-06-22T03:56:35;99870.59;;;18.41;89.49
77351;BME280;66420;50.246;14.320;2023-06-22T03:59:19;99872.66;;;18.44;89.09
77351;BME280;66420;50.246;14.320;2023-06-22T04:02:04;99865.06;;;18.41;90.34
77351;BME280;66420;50.246;14.320;2023-06-22T04:04:49;99868.25;;;18.43;89.15
77351;BME280;66420;50.246;14.320;2023-06-22T04:07:34;99856.19;;;18.36;90.30
77351;BME280;66420;50.246;14.320;2023-06-22T04:10:19;99850.06;;;18.30;90.60
77351;BME280;66420;50.246;14.320;2023-06-22T04:13:04;99844.28;;;18.35;90.32
77351;BME280;66420;50.246;14.320;2023-06-22T04:15:48;99836.63;;;18.44;89.86
77351;BME280;66420;50.246;14.320;2023-06-22T04:18:33;99838.56;;;18.56;89.35
77351;BME280;66420;50.246;14.320;2023-06-22T04:21:19;99845.34;;;18.58;89.15
77351;BME280;66420;50.246;14.320;2023-06-22T04:24:04;99839.81;;;18.58;90.46
77351;BME280;66420;50.246;14.320;2023-06-22T04:26:49;99823.72;;;18.64;89.09
77351;BME280;66420;50.246;14.320;2023-06-22T04:29:38;99825.19;;;18.74;89.16
77351;BME280;66420;50.246;14.320;2023-06-22T04:32:34;99836.44;;;18.81;88.45
77351;BME280;66420;50.246;14.320;2023-06-22T04:35:20;99846.38;;;18.82;88.52
77351;BME280;66420;50.246;14.320;2023-06-22T04:38:07;99837.41;;;18.88;87.30
77351;BME280;66420;50.246;14.320;2023-06-22T04:40:52;99835.56;;;18.92;88.75
77351;BME280;66420;50.246;14.320;2023-06-22T04:43:37;99830.53;;;18.98;87.64
77351;BME280;66420;50.246;14.320;2023-06-22T04:46:21;99848.00;;;19.14;86.76
77351;BME280;66420;50.246;14.320;2023-06-22T04:49:07;99863.72;;;19.26;86.34
77351;BME280;66420;50.246;14.320;2023-06-22T04:51:55;99863.03;;;19.29;86.32
77351;BME280;66420;50.246;14.320;2023-06-22T04:54:40;99853.09;;;19.28;86.51
77351;BME280;66420;50.246;14.320;2023-06-22T04:57:32;99850.31;;;19.28;87.06
77351;BME280;66420;50.246;14.320;2023-06-22T05:00:19;99857.28;;;19.37;86.81
77351;BME280;66420;50.246;14.320;2023-06-22T05:03:04;99846.63;;;19.39;86.37
77351;BME280;66420;50.246;14.320;2023-06-22T05:05:51;99862.03;;;19.53;86.16
77351;BME280;66420;50.246;14.320;2023-06-22T05:08:36;99874.41;;;19.55;86.38
77351;BME280;66420;50.246;14.320;2023-06-22T05:11:21;99869.53;;;19.68;84.99
77351;BME280;66420;50.246;14.320;2023-06-22T05:14:05;99875.97;;;19.72;84.98
77351;BME280;66420;50.246;14.320;2023-06-22T05:16:50;99879.13;;;19.70;85.43
77351;BME280;66420;50.246;14.320;2023-06-22T05:19:36;99879.81;;;19.83;86.38
77351;BME280;66420;50.246;14.320;2023-06-22T05:22:21;99892.41;;;19.96;86.07
77351;BME280;66420;50.246;14.320;2023-06-22T05:25:09;99887.28;;;19.98;84.49
77351;BME280;66420;50.246;14.320;2023-06-22T05:27:54;99893.72;;;20.02;85.22
77351;BME280;66420;50.246;14.320;2023-06-22T05:30:39;99903.09;;;20.13;85.33
77351;BME280;66420;50.246;14.320;2023-06-22T05:33:23;99915.25;;;20.24;84.99
77351;BME280;66420;50.246;14.320;2023-06-22T05:36:08;99916.22;;;20.32;84.72
77351;BME280;66420;50.246;14.320;2023-06-22T05:38:53;99919.09;;;20.55;84.82
77351;BME280;66420;50.246;14.320;2023-06-22T05:41:38;99932.13;;;20.70;83.90
77351;BME280;66420;50.246;14.320;2023-06-22T05:44:22;99933.72;;;20.71;84.07
77351;BME280;66420;50.246;14.320;2023-06-22T05:47:07;99929.91;;;20.79;83.63
77351;BME280;66420;50.246;14.320;2023-06-22T05:49:51;99917.91;;;20.75;84.53
77351;BME280;66420;50.246;14.320;2023-06-22T05:52:36;99921.13;;;20.77;84.47
77351;BME280;66420;50.246;14.320;2023-06-22T05:55:20;99917.00;;;20.90;83.77
77351;BME280;66420;50.246;14.320;2023-06-22T05:58:05;99920.72;;;20.98;83.11
77351;BME280;66420;50.246;14.320;2023-06-22T06:00:50;99928.69;;;20.99;84.29
77351;BME280;66420;50.246;14.320;2023-06-22T06:03:35;99924.59;;;21.12;84.08
77351;BME280;66420;50.246;14.320;2023-06-22T06:06:25;99918.28;;;21.15;83.96
77351;BME280;66420;50.246;14.320;2023-06-22T06:09:13;99920.88;;;21.28;84.15
77351;BME280;66420;50.246;14.320;2023-06-22T06:11:59;99920.53;;;21.29;83.38
77351;BME280;66420;50.246;14.320;2023-06-22T06:14:44;99927.88;;;21.41;83.41
77351;BME280;66420;50.246;14.320;2023-06-22T06:17:28;99934.53;;;21.59;83.24
77351;BME280;66420;50.246;14.320;2023-06-22T06:20:13;99924.47;;;21.77;82.38
77351;BME280;66420;50.246;14.320;2023-06-22T06:22:57;99926.78;;;21.94;82.75
77351;BME280;66420;50.246;14.320;2023-06-22T06:25:42;99918.66;;;22.12;82.38
77351;BME280;66420;50.246;14.320;2023-06-22T06:28:27;99910.81;;;22.21;81.48
77351;BME280;66420;50.246;14.320;2023-06-22T06:31:11;99913.13;;;22.16;83.07
77351;BME280;66420;50.246;14.320;2023-06-22T06:34:01;99906.31;;;22.43;82.68
77351;BME280;66420;50.246;14.320;2023-06-22T06:36:46;99904.31;;;22.40;82.07
77351;BME280;66420;50.246;14.320;2023-06-22T06:39:31;99910.88;;;22.54;82.03
77351;BME280;66420;50.246;14.320;2023-06-22T06:42:15;99914.28;;;22.74;81.35
77351;BME280;66420;50.246;14.320;2023-06-22T06:45:00;99904.53;;;22.91;80.50
77351;BME280;66420;50.246;14.320;2023-06-22T06:47:44;99907.69;;;22.89;78.96
77351;BME280;66420;50.246;14.320;2023-06-22T06:50:30;99900.53;;;22.92;80.04
77351;BME280;66420;50.246;14.320;2023-06-22T06:53:14;99892.69;;;23.05;80.03
77351;BME280;66420;50.246;14.320;2023-06-22T06:55:59;99890.41;;;23.14;81.23
77351;BME280;66420;50.246;14.320;2023-06-22T06:58:44;99882.88;;;23.21;78.49
77351;BME280;66420;50.246;14.320;2023-06-22T07:01:29;99883.19;;;23.13;79.39
77351;BME280;66420;50.246;14.320;2023-06-22T07:04:17;99878.94;;;23.26;78.80
77351;BME280;66420;50.246;14.320;2023-06-22T07:07:05;99867.41;;;23.31;78.08
77351;BME280;66420;50.246;14.320;2023-06-22T07:09:50;99874.25;;;23.37;78.96
77351;BME280;66420;50.246;14.320;2023-06-22T07:12:35;99863.31;;;23.18;78.81
77351;BME280;66420;50.246;14.320;2023-06-22T07:15:19;99868.59;;;23.33;80.23
77351;BME280;66420;50.246;14.320;2023-06-22T07:18:04;99862.81;;;23.56;79.25
77351;BME280;66420;50.246;14.320;2023-06-22T07:20:49;99860.47;;;23.58;76.63
77351;BME280;66420;50.246;14.320;2023-06-22T07:23:34;99854.22;;;23.82;76.46
77351;BME280;66420;50.246;14.320;2023-06-22T07:26:18;99854.31;;;23.97;76.63
77351;BME280;66420;50.246;14.320;2023-06-22T07:29:03;99852.72;;;23.96;76.41
77351;BME280;66420;50.246;14.320;2023-06-22T07:31:50;99848.38;;;24.09;75.51
77351;BME280;66420;50.246;14.320;2023-06-22T07:34:36;99840.53;;;24.36;76.69
77351;BME280;66420;50.246;14.320;2023-06-22T07:37:21;99830.13;;;24.40;74.42
77351;BME280;66420;50.246;14.320;2023-06-22T07:40:06;99829.00;;;24.58;73.23
77351;BME280;66420;50.246;14.320;2023-06-22T07:42:51;99829.81;;;24.55;72.88
77351;BME280;66420;50.246;14.320;2023-06-22T07:45:38;99823.44;;;24.80;71.09
77351;BME280;66420;50.246;14.320;2023-06-22T07:48:24;99821.03;;;24.78;70.43
77351;BME280;66420;50.246;14.320;2023-06-22T07:51:09;99810.69;;;25.00;70.51
77351;BME280;66420;50.246;14.320;2023-06-22T07:53:53;99796.28;;;25.01;70.81
77351;BME280;66420;50.246;14.320;2023-06-22T07:56:38;99785.88;;;25.23;68.58
77351;BME280;66420;50.246;14.320;2023-06-22T07:59:22;99793.06;;;25.31;69.59
77351;BME280;66420;50.246;14.320;2023-06-22T08:02:07;99789.47;;;25.34;69.44
77351;BME280;66420;50.246;14.320;2023-06-22T08:04:52;99789.06;;;25.57;69.76
77351;BME280;66420;50.246;14.320;2023-06-22T08:07:37;99792.19;;;25.77;66.94
77351;BME280;66420;50.246;14.320;2023-06-22T08:10:22;99791.03;;;25.71;66.38
77351;BME280;66420;50.246;14.320;2023-06-22T08:13:07;99797.03;;;25.69;65.82
77351;BME280;66420;50.246;14.320;2023-06-22T08:15:51;99790.16;;;25.91;64.34
77351;BME280;66420;50.246;14.320;2023-06-22T08:18:37;99789.28;;;26.12;64.70
77351;BME280;66420;50.246;14.320;2023-06-22T08:21:22;99791.25;;;26.15;64.02
77351;BME280;66420;50.246;14.320;2023-06-22T08:24:06;99794.81;;;26.26;63.66
77351;BME280;66420;50.246;14.320;2023-06-22T08:26:52;99788.34;;;26.43;62.11
77351;BME280;66420;50.246;14.320;2023-06-22T08:29:36;99797.09;;;26.49;63.84
77351;BME280;66420;50.246;14.320;2023-06-22T08:32:21;99782.91;;;26.74;62.23
77351;BME280;66420;50.246;14.320;2023-06-22T08:35:07;99784.13;;;26.73;62.50
77351;BME280;66420;50.246;14.320;2023-06-22T08:37:53;99797.00;;;26.70;61.46
77351;BME280;66420;50.246;14.320;2023-06-22T08:40:38;99791.78;;;26.69;60.26
77351;BME280;66420;50.246;14.320;2023-06-22T08:43:23;99792.53;;;26.73;60.53
77351;BME280;66420;50.246;14.320;2023-06-22T08:46:07;99787.66;;;26.84;57.72
77351;BME280;66420;50.246;14.320;2023-06-22T08:48:52;99784.47;;;26.82;59.23
77351;BME280;66420;50.246;14.320;2023-06-22T08:51:36;99789.31;;;26.78;58.73
77351;BME280;66420;50.246;14.320;2023-06-22T08:54:21;99790.84;;;26.93;59.01
77351;BME280;66420;50.246;14.320;2023-06-22T08:57:06;99782.97;;;27.18;59.03
77351;BME280;66420;50.246;14.320;2023-06-22T08:59:50;99785.25;;;27.34;57.82
77351;BME280;66420;50.246;14.320;2023-06-22T09:02:37;99781.03;;;27.56;58.10
77351;BME280;66420;50.246;14.320;2023-06-22T09:05:22;99784.81;;;27.80;58.52
77351;BME280;66420;50.246;14.320;2023-06-22T09:08:07;99781.13;;;27.83;55.92
77351;BME280;66420;50.246;14.320;2023-06-22T09:10:52;99770.28;;;27.85;55.74
77351;BME280;66420;50.246;14.320;2023-06-22T09:13:36;99776.78;;;28.12;56.13
77351;BME280;66420;50.246;14.320;2023-06-22T09:16:21;99768.91;;;28.31;55.07
77351;BME280;66420;50.246;14.320;2023-06-22T09:19:06;99769.13;;;28.43;55.06
77351;BME280;66420;50.246;14.320;2023-06-22T09:21:50;99765.78;;;28.52;54.60
77351;BME280;66420;50.246;14.320;2023-06-22T09:24:35;99759.94;;;28.66;52.26
77351;BME280;66420;50.246;14.320;2023-06-22T09:27:20;99759.25;;;28.58;54.42
77351;BME280;66420;50.246;14.320;2023-06-22T09:30:05;99756.00;;;28.60;53.53
77351;BME280;66420;50.246;14.320;2023-06-22T09:32:51;99755.38;;;28.49;53.35
77351;BME280;66420;50.246;14.320;2023-06-22T09:35:36;99754.97;;;28.77;54.30
77351;BME280;66420;50.246;14.320;2023-06-22T09:38:21;99748.25;;;28.94;52.93
77351;BME280;66420;50.246;14.320;2023-06-22T09:41:06;99746.06;;;28.79;52.01
77351;BME280;66420;50.246;14.320;2023-06-22T09:43:50;99753.44;;;28.73;52.69
77351;BME280;66420;50.246;14.320;2023-06-22T09:46:35;99748.66;;;28.66;52.09
77351;BME280;66420;50.246;14.320;2023-06-22T09:49:20;99757.09;;;28.93;52.68
77351;BME280;66420;50.246;14.320;2023-06-22T09:52:05;99748.00;;;29.08;51.65
77351;BME280;66420;50.246;14.320;2023-06-22T09:54:50;99741.38;;;29.19;49.89
77351;BME280;66420;50.246;14.320;2023-06-22T09:57:35;99735.28;;;29.20;50.58
77351;BME280;66420;50.246;14.320;2023-06-22T10:00:20;99729.72;;;29.40;50.64
77351;BME280;66420;50.246;14.320;2023-06-22T10:03:06;99722.00;;;29.44;50.30
77351;BME280;66420;50.246;14.320;2023-06-22T10:05:50;99726.97;;;29.56;49.91
77351;BME280;66420;50.246;14.320;2023-06-22T10:08:35;99726.03;;;29.20;51.26
77351;BME280;66420;50.246;14.320;2023-06-22T10:11:20;99716.00;;;29.42;50.78
77351;BME280;66420;50.246;14.320;2023-06-22T10:14:11;99717.56;;;29.43;52.10
77351;BME280;66420;50.246;14.320;2023-06-22T10:16:55;99708.84;;;29.77;50.35
77351;BME280;66420;50.246;14.320;2023-06-22T10:19:40;99720.75;;;29.88;49.98
77351;BME280;66420;50.246;14.320;2023-06-22T10:22:25;99721.66;;;29.81;50.67
77351;BME280;66420;50.246;14.320;2023-06-22T10:25:11;99714.13;;;29.94;51.22
77351;BME280;66420;50.246;14.320;2023-06-22T10:27:56;99715.22;;;30.01;50.67
77351;BME280;66420;50.246;14.320;2023-06-22T10:30:42;99704.34;;;29.99;49.83
77351;BME280;66420;50.246;14.320;2023-06-22T10:33:27;99712.03;;;29.79;50.26
77351;BME280;66420;50.246;14.320;2023-06-22T10:36:11;99719.66;;;30.02;51.28
77351;BME280;66420;50.246;14.320;2023-06-22T10:38:56;99709.59;;;30.17;46.93
77351;BME280;66420;50.246;14.320;2023-06-22T10:41:43;99713.84;;;30.25;47.80
77351;BME280;66420;50.246;14.320;2023-06-22T10:44:28;99711.03;;;30.25;47.65
77351;BME280;66420;50.246;14.320;2023-06-22T10:47:12;99704.03;;;30.49;46.37
77351;BME280;66420;50.246;14.320;2023-06-22T10:49:57;99702.03;;;30.30;45.96
77351;BME280;66420;50.246;14.320;2023-06-22T10:52:42;99706.16;;;30.45;47.50
77351;BME280;66420;50.246;14.320;2023-06-22T10:55:26;99700.88;;;30.47;47.34
77351;BME280;66420;50.246;14.320;2023-06-22T10:58:11;99691.00;;;30.55;48.01
77351;BME280;66420;50.246;14.320;2023-06-22T11:00:56;99682.59;;;30.68;46.81
77351;BME280;66420;50.246;14.320;2023-06-22T11:03:40;99685.84;;;30.66;46.70
77351;BME280;66420;50.246;14.320;2023-06-22T11:06:25;99695.41;;;30.56;46.13
77351;BME280;66420;50.246;14.320;2023-06-22T11:09:09;99682.78;;;30.61;45.73
77351;BME280;66420;50.246;14.320;2023-06-22T11:11:55;99684.25;;;30.98;46.96
77351;BME280;66420;50.246;14.320;2023-06-22T11:14:40;99677.56;;;30.75;44.72
77351;BME280;66420;50.246;14.320;2023-06-22T11:17:25;99677.41;;;30.50;46.50
77351;BME280;66420;50.246;14.320;2023-06-22T11:20:09;99672.56;;;30.31;48.43
77351;BME280;66420;50.246;14.320;2023-06-22T11:22:55;99671.44;;;30.45;48.80
77351;BME280;66420;50.246;14.320;2023-06-22T11:25:40;99662.09;;;30.80;47.51
77351;BME280;66420;50.246;14.320;2023-06-22T11:28:27;99660.44;;;30.66;46.98
77351;BME280;66420;50.246;14.320;2023-06-22T11:31:11;99658.22;;;30.74;48.56
77351;BME280;66420;50.246;14.320;2023-06-22T11:33:56;99657.41;;;30.41;48.17
77351;BME280;66420;50.246;14.320;2023-06-22T11:36:40;99654.69;;;30.54;48.58
77351;BME280;66420;50.246;14.320;2023-06-22T11:39:25;99649.06;;;30.54;48.66
77351;BME280;66420;50.246;14.320;2023-06-22T11:42:10;99641.75;;;30.20;47.13
77351;BME280;66420;50.246;14.320;2023-06-22T11:44:54;99640.25;;;30.16;48.40
77351;BME280;66420;50.246;14.320;2023-06-22T11:47:39;99631.69;;;30.03;49.25
77351;BME280;66420;50.246;14.320;2023-06-22T11:50:24;99637.50;;;30.64;47.16
77351;BME280;66420;50.246;14.320;2023-06-22T11:53:09;99621.91;;;31.05;46.16
77351;BME280;66420;50.246;14.320;2023-06-22T11:55:54;99618.31;;;30.72;45.40
77351;BME280;66420;50.246;14.320;2023-06-22T11:58:39;99618.78;;;30.70;46.82
77351;BME280;66420;50.246;14.320;2023-06-22T12:01:24;99624.03;;;30.85;45.56
77351;BME280;66420;50.246;14.320;2023-06-22T12:04:09;99625.50;;;30.60;45.35
77351;BME280;66420;50.246;14.320;2023-06-22T12:06:55;99622.63;;;30.44;46.49
77351;BME280;66420;50.246;14.320;2023-06-22T12:09:40;99626.00;;;30.71;46.44
77351;BME280;66420;50.246;14.320;2023-06-22T12:12:24;99619.44;;;30.91;47.92
77351;BME280;66420;50.246;14.320;2023-06-22T12:15:12;99624.56;;;30.31;47.75
77351;BME280;66420;50.246;14.320;2023-06-22T12:17:57;99626.66;;;30.47;48.92
77351;BME280;66420;50.246;14.320;2023-06-22T12:20:41;99612.72;;;30.85;47.12
77351;BME280;66420;50.246;14.320;2023-06-22T12:23:26;99606.00;;;30.95;46.64
77351;BME280;66420;50.246;14.320;2023-06-22T12:26:10;99613.59;;;30.98;46.94
77351;BME280;66420;50.246;14.320;2023-06-22T12:28:55;99596.72;;;31.10;47.15
77351;BME280;66420;50.246;14.320;2023-06-22T12:31:39;99584.50;;;31.13;44.99
77351;BME280;66420;50.246;14.320;2023-06-22T12:34:25;99577.03;;;31.07;45.55
77351;BME280;66420;50.246;14.320;2023-06-22T12:37:10;99575.06;;;31.04;46.37
77351;BME280;66420;50.246;14.320;2023-06-22T12:39:55;99576.34;;;30.87;46.12
77351;BME280;66420;50.246;14.320;2023-06-22T12:42:40;99571.75;;;30.76;46.48
77351;BME280;66420;50.246;14.320;2023-06-22T12:45:24;99563.13;;;30.67;47.64
77351;BME280;66420;50.246;14.320;2023-06-22T12:48:13;99556.25;;;30.97;48.18
77351;BME280;66420;50.246;14.320;2023-06-22T12:50:58;99566.72;;;31.13;47.10
77351;BME280;66420;50.246;14.320;2023-06-22T12:53:42;99554.03;;;31.05;47.56
77351;BME280;66420;50.246;14.320;2023-06-22T12:56:28;99557.00;;;30.85;46.58
77351;BME280;66420;50.246;14.320;2023-06-22T12:59:12;99551.97;;;30.76;46.92
77351;BME280;66420;50.246;14.320;2023-06-22T13:01:57;99545.31;;;30.70;46.63
77351;BME280;66420;50.246;14.320;2023-06-22T13:04:41;99532.91;;;30.80;47.34
77351;BME280;66420;50.246;14.320;2023-06-22T13:07:27;99524.97;;;30.75;47.10
77351;BME280;66420;50.246;14.320;2023-06-22T13:10:12;99523.97;;;30.82;46.60
77351;BME280;66420;50.246;14.320;2023-06-22T13:12:57;99528.72;;;30.85;47.62
77351;BME280;66420;50.246;14.320;2023-06-22T13:15:45;99541.91;;;30.75;47.17
77351;BME280;66420;50.246;14.320;2023-06-22T13:18:29;99532.66;;;31.04;48.33
77351;BME280;66420;50.246;14.320;2023-06-22T13:21:14;99537.16;;;31.30;47.32
77351;BME280;66420;50.246;14.320;2023-06-22T13:23:59;99535.69;;;30.97;48.55
77351;BME280;66420;50.246;14.320;2023-06-22T13:26:44;99533.28;;;30.95;49.45
77351;BME280;66420;50.246;14.320;2023-06-22T13:29:28;99517.81;;;31.00;49.92
77351;BME280;66420;50.246;14.320;2023-06-22T13:32:13;99514.66;;;30.98;48.12
77351;BME280;66420;50.246;14.320;2023-06-22T13:34:58;99514.84;;;30.91;48.90
77351;BME280;66420;50.246;14.320;2023-06-22T13:37:42;99512.72;;;30.95;48.25
77351;BME280;66420;50.246;14.320;2023-06-22T13:40:28;99506.34;;;31.07;49.13
77351;BME280;66420;50.246;14.320;2023-06-22T13:43:13;99501.38;;;31.11;47.73
77351;BME280;66420;50.246;14.320;2023-06-22T13:45:58;99499.56;;;31.17;48.83
77351;BME280;66420;50.246;14.320;2023-06-22T13:48:43;99500.41;;;31.30;47.57
77351;BME280;66420;50.246;14.320;2023-06-22T13:51:27;99494.13;;;31.10;48.39
77351;BME280;66420;50.246;14.320;2023-06-22T13:54:12;99504.66;;;31.22;48.63
77351;BME280;66420;50.246;14.320;2023-06-22T13:56:56;99499.13;;;31.31;48.14
77351;BME280;66420;50.246;14.320;2023-06-22T13:59:41;99497.56;;;31.30;47.97
77351;BME280;66420;50.246;14.320;2023-06-22T14:02:26;99495.75;;;31.36;47.98
77351;BME280;66420;50.246;14.320;2023-06-22T14:05:10;99497.44;;;31.21;47.88
77351;BME280;66420;50.246;14.320;2023-06-22T14:07:56;99484.00;;;31.25;47.50
77351;BME280;66420;50.246;14.320;2023-06-22T14:10:41;99477.84;;;31.14;47.15
77351;BME280;66420;50.246;14.320;2023-06-22T14:13:25;99476.19;;;31.16;47.56
77351;BME280;66420;50.246;14.320;2023-06-22T14:16:10;99470.94;;;31.02;48.22
77351;BME280;66420;50.246;14.320;2023-06-22T14:18:55;99466.94;;;31.00;47.97
77351;BME280;66420;50.246;14.320;2023-06-22T14:21:39;99463.84;;;31.23;49.84
77351;BME280;66420;50.246;14.320;2023-06-22T14:24:24;99458.19;;;31.36;47.96
77351;BME280;66420;50.246;14.320;2023-06-22T14:27:09;99445.38;;;31.06;48.33